sensor_id;sensor_type;location;lat;lon;timestamp;P1;durP1;ratioP1;P2;durP2;ratioP2
77026;SDS011;65956;52.986;17.490;2023-08-24T00:00:41;4.80;;;3.20;;
77026;SDS011;65956;52.986;17.490;2023-08-24T00:03:28;6.30;;;3.30;;
77026;SDS011;65956;52.986;17.490;2023-08-24T00:05:54;6.20;;;3.00;;
77026;SDS011;65956;52.986;17.490;2023-08-24T00:08:20;5.70;;;3.30;;
77026;SDS011;65956;52.986;17.490;2023-08-24T00:10:46;5.40;;;3.10;;
77026;SDS011;65956;52.986;17.490;2023-08-24T00:13:12;6.30;;;3.20;;
77026;SDS011;65956;52.986;17.490;2023-08-24T00:15:39;7.80;;;3.30;;
77026;SDS011;65956;52.986;17.490;2023-08-24T00:18:05;8.70;;;3.30;;
77026;SDS011;65956;52.986;17.490;2023-08-24T00:20:33;5.20;;;2.90;;
77026;SDS011;65956;52.986;17.490;2023-08-24T00:22:59;5.70;;;3.00;;
77026;SDS011;65956;52.986;17.490;2023-08-24T00:25:25;6.20;;;3.00;;
77026;SDS011;65956;52.986;17.490;2023-08-24T00:27:54;7.60;;;3.30;;
77026;SDS011;65956;52.986;17.490;2023-08-24T00:30:21;6.30;;;3.40;;
77026;SDS011;65956;52.986;17.490;2023-08-24T00:32:47;5.00;;;3.00;;
77026;SDS011;65956;52.986;17.490;2023-08-24T00:35:13;8.80;;;3.50;;
77026;SDS011;65956;52.986;17.490;2023-08-24T00:37:39;6.40;;;3.20;;
77026;SDS011;65956;52.986;17.490;2023-08-24T00:40:05;5.10;;;3.10;;
77026;SDS011;65956;52.986;17.490;2023-08-24T00:45:07;8.40;;;3.80;;
77026;SDS011;65956;52.986;17.490;2023-08-24T00:47:36;7.60;;;3.20;;
77026;SDS011;65956;52.986;17.490;2023-08-24T00:50:03;6.90;;;3.00;;
77026;SDS011;65956;52.986;17.490;2023-08-24T00:52:31;6.10;;;3.60;;
77026;SDS011;65956;52.986;17.490;2023-08-24T00:54:58;7.00;;;3.10;;
77026;SDS011;65956;52.986;17.490;2023-08-24T00:57:26;6.20;;;3.20;;
77026;SDS011;65956;52.986;17.490;2023-08-24T00:59:53;5.80;;;3.30;;
77026;SDS011;65956;52.986;17.490;2023-08-24T01:02:20;8.70;;;3.40;;
77026;SDS011;65956;52.986;17.490;2023-08-24T01:04:46;6.70;;;3.30;;
77026;SDS011;65956;52.986;17.490;2023-08-24T01:07:13;5.00;;;3.00;;
77026;SDS011;65956;52.986;17.490;2023-08-24T01:09:41;6.40;;;3.00;;
77026;SDS011;65956;52.986;17.490;2023-08-24T01:12:12;7.40;;;3.20;;
77026;SDS011;65956;52.986;17.490;2023-08-24T01:14:58;4.70;;;2.90;;
77026;SDS011;65956;52.986;17.490;2023-08-24T01:17:28;6.90;;;3.10;;
77026;SDS011;65956;52.986;17.490;2023-08-24T01:19:57;5.10;;;3.30;;
77026;SDS011;65956;52.986;17.490;2023-08-24T01:27:39;4.60;;;3.00;;
77026;SDS011;65956;52.986;17.490;2023-08-24T01:30:06;6.70;;;3.30;;
77026;SDS011;65956;52.986;17.490;2023-08-24T01:32:33;5.10;;;2.70;;
77026;SDS011;65956;52.986;17.490;2023-08-24T01:35:04;6.10;;;3.20;;
77026;SDS011;65956;52.986;17.490;2023-08-24T01:37:33;5.50;;;3.10;;
77026;SDS011;65956;52.986;17.490;2023-08-24T01:45:17;5.60;;;3.80;;
77026;SDS011;65956;52.986;17.490;2023-08-24T01:47:45;7.00;;;3.00;;
77026;SDS011;65956;52.986;17.490;2023-08-24T01:50:13;6.40;;;3.30;;
77026;SDS011;65956;52.986;17.490;2023-08-24T01:52:39;6.50;;;3.70;;
77026;SDS011;65956;52.986;17.490;2023-08-24T01:55:07;5.70;;;3.60;;
77026;SDS011;65956;52.986;17.490;2023-08-24T01:57:33;7.00;;;4.10;;
77026;SDS011;65956;52.986;17.490;2023-08-24T01:59:59;6.30;;;3.90;;
77026;SDS011;65956;52.986;17.490;2023-08-24T02:02:25;7.10;;;4.20;;
77026;SDS011;65956;52.986;17.490;2023-08-24T02:04:51;8.10;;;3.90;;
77026;SDS011;65956;52.986;17.490;2023-08-24T02:07:17;6.50;;;3.80;;
77026;SDS011;65956;52.986;17.490;2023-08-24T02:09:43;6.90;;;3.80;;
77026;SDS011;65956;52.986;17.490;2023-08-24T02:12:09;8.00;;;4.50;;
77026;SDS011;65956;52.986;17.490;2023-08-24T02:14:36;7.90;;;4.90;;
77026;SDS011;65956;52.986;17.490;2023-08-24T02:17:02;7.30;;;4.60;;
77026;SDS011;65956;52.986;17.490;2023-08-24T02:19:29;7.70;;;3.60;;
77026;SDS011;65956;52.986;17.490;2023-08-24T02:21:55;6.50;;;3.60;;
77026;SDS011;65956;52.986;17.490;2023-08-24T02:24:22;8.00;;;4.80;;
77026;SDS011;65956;52.986;17.490;2023-08-24T02:26:48;6.20;;;3.90;;
77026;SDS011;65956;52.986;17.490;2023-08-24T02:29:14;6.30;;;3.70;;
77026;SDS011;65956;52.986;17.490;2023-08-24T02:31:40;7.90;;;3.10;;
77026;SDS011;65956;52.986;17.490;2023-08-24T02:34:06;5.90;;;3.60;;
77026;SDS011;65956;52.986;17.490;2023-08-24T02:36:33;6.40;;;3.60;;
77026;SDS011;65956;52.986;17.490;2023-08-24T02:38:59;10.60;;;4.30;;
77026;SDS011;65956;52.986;17.490;2023-08-24T02:41:26;6.70;;;3.70;;
77026;SDS011;65956;52.986;17.490;2023-08-24T02:43:53;6.60;;;3.70;;
77026;SDS011;65956;52.986;17.490;2023-08-24T02:46:20;6.70;;;3.30;;
77026;SDS011;65956;52.986;17.490;2023-08-24T02:48:47;6.10;;;3.50;;
77026;SDS011;65956;52.986;17.490;2023-08-24T02:51:13;5.20;;;3.40;;
77026;SDS011;65956;52.986;17.490;2023-08-24T02:53:40;5.40;;;3.30;;
77026;SDS011;65956;52.986;17.490;2023-08-24T02:56:05;5.70;;;2.90;;
77026;SDS011;65956;52.986;17.490;2023-08-24T02:58:31;6.70;;;3.50;;
77026;SDS011;65956;52.986;17.490;2023-08-24T03:00:58;6.40;;;3.60;;
77026;SDS011;65956;52.986;17.490;2023-08-24T03:03:24;6.40;;;4.00;;
77026;SDS011;65956;52.986;17.490;2023-08-24T03:05:58;6.90;;;3.60;;
77026;SDS011;65956;52.986;17.490;2023-08-24T03:08:27;6.20;;;3.40;;
77026;SDS011;65956;52.986;17.490;2023-08-24T03:10:55;6.80;;;3.90;;
77026;SDS011;65956;52.986;17.490;2023-08-24T03:13:22;9.10;;;3.40;;
77026;SDS011;65956;52.986;17.490;2023-08-24T03:15:48;6.20;;;3.70;;
77026;SDS011;65956;52.986;17.490;2023-08-24T03:18:15;7.00;;;3.90;;
77026;SDS011;65956;52.986;17.490;2023-08-24T03:20:43;6.50;;;3.80;;
77026;SDS011;65956;52.986;17.490;2023-08-24T03:23:10;7.80;;;3.80;;
77026;SDS011;65956;52.986;17.490;2023-08-24T03:25:37;7.20;;;3.90;;
77026;SDS011;65956;52.986;17.490;2023-08-24T03:28:04;8.50;;;4.10;;
77026;SDS011;65956;52.986;17.490;2023-08-24T03:30:31;9.80;;;4.00;;
77026;SDS011;65956;52.986;17.490;2023-08-24T03:32:58;6.60;;;3.90;;
77026;SDS011;65956;52.986;17.490;2023-08-24T03:35:25;7.40;;;3.90;;
77026;SDS011;65956;52.986;17.490;2023-08-24T03:37:51;6.00;;;3.90;;
77026;SDS011;65956;52.986;17.490;2023-08-24T03:40:17;8.50;;;4.60;;
77026;SDS011;65956;52.986;17.490;2023-08-24T03:42:43;6.40;;;3.90;;
77026;SDS011;65956;52.986;17.490;2023-08-24T03:45:09;5.70;;;3.90;;
77026;SDS011;65956;52.986;17.490;2023-08-24T03:47:35;6.00;;;3.30;;
77026;SDS011;65956;52.986;17.490;2023-08-24T03:50:01;9.10;;;3.60;;
77026;SDS011;65956;52.986;17.490;2023-08-24T03:52:27;6.50;;;3.40;;
77026;SDS011;65956;52.986;17.490;2023-08-24T03:54:53;5.70;;;3.70;;
77026;SDS011;65956;52.986;17.490;2023-08-24T03:57:19;7.80;;;4.00;;
77026;SDS011;65956;52.986;17.490;2023-08-24T03:59:46;8.60;;;4.10;;
77026;SDS011;65956;52.986;17.490;2023-08-24T04:02:12;5.90;;;3.70;;
77026;SDS011;65956;52.986;17.490;2023-08-24T04:04:38;5.70;;;3.50;;
77026;SDS011;65956;52.986;17.490;2023-08-24T04:07:04;7.90;;;3.90;;
77026;SDS011;65956;52.986;17.490;2023-08-24T04:09:30;6.20;;;3.30;;
77026;SDS011;65956;52.986;17.490;2023-08-24T04:11:56;8.10;;;3.70;;
77026;SDS011;65956;52.986;17.490;2023-08-24T04:14:22;6.90;;;3.40;;
77026;SDS011;65956;52.986;17.490;2023-08-24T04:16:48;5.70;;;3.50;;
77026;SDS011;65956;52.986;17.490;2023-08-24T04:19:14;6.20;;;3.30;;
77026;SDS011;65956;52.986;17.490;2023-08-24T04:21:41;8.80;;;3.70;;
77026;SDS011;65956;52.986;17.490;2023-08-24T04:24:07;7.90;;;3.80;;
77026;SDS011;65956;52.986;17.490;2023-08-24T04:26:33;4.90;;;2.80;;
77026;SDS011;65956;52.986;17.490;2023-08-24T04:28:59;6.00;;;4.20;;
77026;SDS011;65956;52.986;17.490;2023-08-24T04:31:25;6.80;;;4.20;;
77026;SDS011;65956;52.986;17.490;2023-08-24T04:33:51;5.90;;;3.70;;
77026;SDS011;65956;52.986;17.490;2023-08-24T04:36:17;8.10;;;3.70;;
77026;SDS011;65956;52.986;17.490;2023-08-24T04:38:43;7.90;;;3.20;;
77026;SDS011;65956;52.986;17.490;2023-08-24T04:41:09;6.20;;;3.90;;
77026;SDS011;65956;52.986;17.490;2023-08-24T04:43:37;6.50;;;3.60;;
77026;SDS011;65956;52.986;17.490;2023-08-24T04:46:03;7.30;;;3.90;;
77026;SDS011;65956;52.986;17.490;2023-08-24T04:48:30;6.70;;;3.50;;
77026;SDS011;65956;52.986;17.490;2023-08-24T04:51:03;6.50;;;4.00;;
77026;SDS011;65956;52.986;17.490;2023-08-24T04:53:29;9.70;;;4.20;;
77026;SDS011;65956;52.986;17.490;2023-08-24T04:55:55;8.10;;;3.40;;
77026;SDS011;65956;52.986;17.490;2023-08-24T04:58:21;6.50;;;3.50;;
77026;SDS011;65956;52.986;17.490;2023-08-24T05:00:47;7.90;;;3.60;;
77026;SDS011;65956;52.986;17.490;2023-08-24T05:03:14;8.30;;;4.70;;
77026;SDS011;65956;52.986;17.490;2023-08-24T05:05:40;8.40;;;4.20;;
77026;SDS011;65956;52.986;17.490;2023-08-24T05:08:06;6.90;;;3.90;;
77026;SDS011;65956;52.986;17.490;2023-08-24T05:10:35;6.60;;;4.20;;
77026;SDS011;65956;52.986;17.490;2023-08-24T05:13:02;7.70;;;3.90;;
77026;SDS011;65956;52.986;17.490;2023-08-24T05:15:28;7.60;;;3.70;;
77026;SDS011;65956;52.986;17.490;2023-08-24T05:17:54;6.70;;;3.70;;
77026;SDS011;65956;52.986;17.490;2023-08-24T05:20:22;6.10;;;3.40;;
77026;SDS011;65956;52.986;17.490;2023-08-24T05:22:48;6.80;;;3.60;;
77026;SDS011;65956;52.986;17.490;2023-08-24T05:25:14;6.30;;;3.30;;
77026;SDS011;65956;52.986;17.490;2023-08-24T05:27:43;8.20;;;4.50;;
77026;SDS011;65956;52.986;17.490;2023-08-24T05:30:10;7.70;;;3.10;;
77026;SDS011;65956;52.986;17.490;2023-08-24T05:32:36;6.10;;;3.40;;
77026;SDS011;65956;52.986;17.490;2023-08-24T05:35:07;7.20;;;3.30;;
77026;SDS011;65956;52.986;17.490;2023-08-24T05:37:34;6.10;;;3.20;;
77026;SDS011;65956;52.986;17.490;2023-08-24T05:40:01;5.10;;;3.30;;
77026;SDS011;65956;52.986;17.490;2023-08-24T05:42:28;8.70;;;3.40;;
77026;SDS011;65956;52.986;17.490;2023-08-24T05:44:54;5.20;;;2.80;;
77026;SDS011;65956;52.986;17.490;2023-08-24T05:47:19;6.00;;;2.80;;
77026;SDS011;65956;52.986;17.490;2023-08-24T05:49:45;5.50;;;3.00;;
77026;SDS011;65956;52.986;17.490;2023-08-24T05:52:11;4.40;;;2.50;;
77026;SDS011;65956;52.986;17.490;2023-08-24T05:54:37;5.40;;;2.80;;
77026;SDS011;65956;52.986;17.490;2023-08-24T05:57:04;6.70;;;2.90;;
77026;SDS011;65956;52.986;17.490;2023-08-24T05:59:31;4.70;;;2.40;;
77026;SDS011;65956;52.986;17.490;2023-08-24T06:01:58;4.80;;;2.30;;
77026;SDS011;65956;52.986;17.490;2023-08-24T06:04:24;4.90;;;2.30;;
77026;SDS011;65956;52.986;17.490;2023-08-24T06:06:50;4.40;;;2.30;;
77026;SDS011;65956;52.986;17.490;2023-08-24T06:09:17;4.80;;;2.20;;
77026;SDS011;65956;52.986;17.490;2023-08-24T06:11:43;5.60;;;2.40;;
77026;SDS011;65956;52.986;17.490;2023-08-24T06:14:10;4.50;;;2.20;;
77026;SDS011;65956;52.986;17.490;2023-08-24T06:16:35;3.90;;;1.90;;
77026;SDS011;65956;52.986;17.490;2023-08-24T06:19:01;4.60;;;2.00;;
77026;SDS011;65956;52.986;17.490;2023-08-24T06:21:29;4.90;;;2.10;;
77026;SDS011;65956;52.986;17.490;2023-08-24T06:23:55;4.60;;;2.00;;
77026;SDS011;65956;52.986;17.490;2023-08-24T06:26:21;4.10;;;2.30;;
77026;SDS011;65956;52.986;17.490;2023-08-24T06:28:47;4.70;;;1.90;;
77026;SDS011;65956;52.986;17.490;2023-08-24T06:31:13;6.30;;;2.10;;
77026;SDS011;65956;52.986;17.490;2023-08-24T06:33:41;5.80;;;1.80;;
77026;SDS011;65956;52.986;17.490;2023-08-24T06:36:07;5.50;;;2.10;;
77026;SDS011;65956;52.986;17.490;2023-08-24T06:38:33;4.80;;;2.00;;
77026;SDS011;65956;52.986;17.490;2023-08-24T06:41:00;4.40;;;2.00;;
77026;SDS011;65956;52.986;17.490;2023-08-24T06:43:26;5.20;;;2.10;;
77026;SDS011;65956;52.986;17.490;2023-08-24T06:45:56;4.80;;;1.70;;
77026;SDS011;65956;52.986;17.490;2023-08-24T06:48:22;3.90;;;1.60;;
77026;SDS011;65956;52.986;17.490;2023-08-24T06:50:49;3.30;;;1.60;;
77026;SDS011;65956;52.986;17.490;2023-08-24T06:53:15;5.10;;;1.60;;
77026;SDS011;65956;52.986;17.490;2023-08-24T06:55:41;5.70;;;1.50;;
77026;SDS011;65956;52.986;17.490;2023-08-24T06:58:06;4.40;;;1.70;;
77026;SDS011;65956;52.986;17.490;2023-08-24T07:00:32;4.30;;;1.70;;
77026;SDS011;65956;52.986;17.490;2023-08-24T07:03:01;4.10;;;1.60;;
77026;SDS011;65956;52.986;17.490;2023-08-24T07:05:28;3.20;;;1.30;;
77026;SDS011;65956;52.986;17.490;2023-08-24T07:07:54;3.10;;;1.50;;
77026;SDS011;65956;52.986;17.490;2023-08-24T07:10:20;4.30;;;1.40;;
77026;SDS011;65956;52.986;17.490;2023-08-24T07:12:46;4.40;;;1.70;;
77026;SDS011;65956;52.986;17.490;2023-08-24T07:15:12;3.80;;;1.40;;
77026;SDS011;65956;52.986;17.490;2023-08-24T07:17:39;3.70;;;1.20;;
77026;SDS011;65956;52.986;17.490;2023-08-24T07:20:06;3.70;;;1.30;;
77026;SDS011;65956;52.986;17.490;2023-08-24T07:22:34;3.00;;;0.90;;
77026;SDS011;65956;52.986;17.490;2023-08-24T07:25:00;4.00;;;1.20;;
77026;SDS011;65956;52.986;17.490;2023-08-24T07:27:34;4.00;;;1.30;;
77026;SDS011;65956;52.986;17.490;2023-08-24T07:30:01;4.60;;;1.50;;
77026;SDS011;65956;52.986;17.490;2023-08-24T07:32:31;4.30;;;1.40;;
77026;SDS011;65956;52.986;17.490;2023-08-24T07:34:57;3.60;;;1.30;;
77026;SDS011;65956;52.986;17.490;2023-08-24T07:37:25;2.80;;;1.20;;
77026;SDS011;65956;52.986;17.490;2023-08-24T07:39:52;4.50;;;1.10;;
77026;SDS011;65956;52.986;17.490;2023-08-24T07:42:21;2.50;;;1.10;;
77026;SDS011;65956;52.986;17.490;2023-08-24T07:44:47;3.80;;;1.30;;
77026;SDS011;65956;52.986;17.490;2023-08-24T07:47:14;2.60;;;1.30;;
77026;SDS011;65956;52.986;17.490;2023-08-24T07:49:40;3.10;;;1.30;;
77026;SDS011;65956;52.986;17.490;2023-08-24T07:52:12;2.90;;;1.60;;
77026;SDS011;65956;52.986;17.490;2023-08-24T07:54:38;3.20;;;1.20;;
77026;SDS011;65956;52.986;17.490;2023-08-24T07:57:05;3.20;;;1.30;;
77026;SDS011;65956;52.986;17.490;2023-08-24T07:59:32;5.40;;;2.30;;
77026;SDS011;65956;52.986;17.490;2023-08-24T08:01:58;3.70;;;1.40;;
77026;SDS011;65956;52.986;17.490;2023-08-24T08:04:24;3.80;;;1.30;;
77026;SDS011;65956;52.986;17.490;2023-08-24T08:06:49;5.30;;;1.10;;
77026;SDS011;65956;52.986;17.490;2023-08-24T08:09:15;2.70;;;1.00;;
77026;SDS011;65956;52.986;17.490;2023-08-24T08:11:42;4.90;;;1.30;;
77026;SDS011;65956;52.986;17.490;2023-08-24T08:14:08;4.00;;;1.10;;
77026;SDS011;65956;52.986;17.490;2023-08-24T08:16:35;3.60;;;1.40;;
77026;SDS011;65956;52.986;17.490;2023-08-24T08:19:02;5.10;;;1.40;;
77026;SDS011;65956;52.986;17.490;2023-08-24T08:21:28;2.50;;;1.00;;
77026;SDS011;65956;52.986;17.490;2023-08-24T08:23:55;4.70;;;1.70;;
77026;SDS011;65956;52.986;17.490;2023-08-24T08:26:21;3.40;;;1.30;;
77026;SDS011;65956;52.986;17.490;2023-08-24T08:28:47;3.30;;;1.20;;
77026;SDS011;65956;52.986;17.490;2023-08-24T08:31:13;2.70;;;1.10;;
77026;SDS011;65956;52.986;17.490;2023-08-24T08:33:39;3.60;;;1.10;;
77026;SDS011;65956;52.986;17.490;2023-08-24T08:36:05;2.50;;;1.20;;
77026;SDS011;65956;52.986;17.490;2023-08-24T08:38:31;3.50;;;1.20;;
77026;SDS011;65956;52.986;17.490;2023-08-24T08:41:01;2.60;;;1.20;;
77026;SDS011;65956;52.986;17.490;2023-08-24T08:43:28;4.60;;;2.00;;
77026;SDS011;65956;52.986;17.490;2023-08-24T08:45:56;3.80;;;1.60;;
77026;SDS011;65956;52.986;17.490;2023-08-24T08:48:22;3.50;;;1.10;;
77026;SDS011;65956;52.986;17.490;2023-08-24T08:50:50;4.40;;;1.20;;
77026;SDS011;65956;52.986;17.490;2023-08-24T08:53:20;2.90;;;1.10;;
77026;SDS011;65956;52.986;17.490;2023-08-24T08:55:47;3.20;;;1.20;;
77026;SDS011;65956;52.986;17.490;2023-08-24T08:58:15;2.70;;;1.00;;
77026;SDS011;65956;52.986;17.490;2023-08-24T09:00:42;5.00;;;1.40;;
77026;SDS011;65956;52.986;17.490;2023-08-24T09:03:08;3.50;;;1.20;;
77026;SDS011;65956;52.986;17.490;2023-08-24T09:05:36;3.80;;;1.20;;
77026;SDS011;65956;52.986;17.490;2023-08-24T09:08:03;2.90;;;1.30;;
77026;SDS011;65956;52.986;17.490;2023-08-24T09:10:31;3.30;;;1.00;;
77026;SDS011;65956;52.986;17.490;2023-08-24T09:12:57;3.80;;;1.20;;
77026;SDS011;65956;52.986;17.490;2023-08-24T09:15:23;3.20;;;1.20;;
77026;SDS011;65956;52.986;17.490;2023-08-24T09:17:53;3.00;;;1.30;;
77026;SDS011;65956;52.986;17.490;2023-08-24T09:20:22;3.00;;;1.20;;
77026;SDS011;65956;52.986;17.490;2023-08-24T09:22:47;5.00;;;1.30;;
77026;SDS011;65956;52.986;17.490;2023-08-24T09:25:14;2.80;;;1.20;;
77026;SDS011;65956;52.986;17.490;2023-08-24T09:27:40;2.80;;;1.10;;
77026;SDS011;65956;52.986;17.490;2023-08-24T09:30:07;4.20;;;1.20;;
77026;SDS011;65956;52.986;17.490;2023-08-24T09:32:33;3.60;;;1.20;;
77026;SDS011;65956;52.986;17.490;2023-08-24T09:35:03;3.60;;;1.20;;
77026;SDS011;65956;52.986;17.490;2023-08-24T09:37:33;5.40;;;1.20;;
77026;SDS011;65956;52.986;17.490;2023-08-24T09:40:01;7.00;;;1.30;;
77026;SDS011;65956;52.986;17.490;2023-08-24T09:42:39;3.10;;;1.40;;
77026;SDS011;65956;52.986;17.490;2023-08-24T09:45:08;4.50;;;1.40;;
77026;SDS011;65956;52.986;17.490;2023-08-24T09:47:37;3.60;;;1.10;;
77026;SDS011;65956;52.986;17.490;2023-08-24T09:50:04;3.50;;;1.20;;
77026;SDS011;65956;52.986;17.490;2023-08-24T09:52:32;3.50;;;1.30;;
77026;SDS011;65956;52.986;17.490;2023-08-24T09:55:03;5.20;;;1.20;;
77026;SDS011;65956;52.986;17.490;2023-08-24T09:57:36;3.90;;;1.10;;
77026;SDS011;65956;52.986;17.490;2023-08-24T10:00:05;4.30;;;1.30;;
77026;SDS011;65956;52.986;17.490;2023-08-24T10:02:36;3.50;;;1.30;;
77026;SDS011;65956;52.986;17.490;2023-08-24T10:05:16;3.10;;;1.20;;
77026;SDS011;65956;52.986;17.490;2023-08-24T10:07:55;4.30;;;1.40;;
77026;SDS011;65956;52.986;17.490;2023-08-24T10:10:25;4.20;;;1.40;;
77026;SDS011;65956;52.986;17.490;2023-08-24T10:12:57;3.00;;;1.30;;
77026;SDS011;65956;52.986;17.490;2023-08-24T10:15:28;5.10;;;1.40;;
77026;SDS011;65956;52.986;17.490;2023-08-24T10:17:55;3.40;;;1.20;;
77026;SDS011;65956;52.986;17.490;2023-08-24T10:20:23;4.40;;;1.10;;
77026;SDS011;65956;52.986;17.490;2023-08-24T10:22:49;2.60;;;1.20;;
77026;SDS011;65956;52.986;17.490;2023-08-24T10:25:16;3.70;;;1.30;;
77026;SDS011;65956;52.986;17.490;2023-08-24T10:27:45;2.90;;;1.10;;
77026;SDS011;65956;52.986;17.490;2023-08-24T10:30:16;4.60;;;1.40;;
77026;SDS011;65956;52.986;17.490;2023-08-24T10:32:45;3.20;;;1.30;;
77026;SDS011;65956;52.986;17.490;2023-08-24T10:35:11;6.10;;;1.30;;
77026;SDS011;65956;52.986;17.490;2023-08-24T10:37:41;3.80;;;1.10;;
77026;SDS011;65956;52.986;17.490;2023-08-24T10:40:11;3.40;;;1.40;;
77026;SDS011;65956;52.986;17.490;2023-08-24T10:42:45;3.50;;;1.30;;
77026;SDS011;65956;52.986;17.490;2023-08-24T10:45:13;3.20;;;1.30;;
77026;SDS011;65956;52.986;17.490;2023-08-24T10:47:45;5.20;;;1.20;;
77026;SDS011;65956;52.986;17.490;2023-08-24T10:50:13;5.40;;;1.40;;
77026;SDS011;65956;52.986;17.490;2023-08-24T10:52:42;3.50;;;1.30;;
77026;SDS011;65956;52.986;17.490;2023-08-24T10:55:22;3.60;;;1.30;;
77026;SDS011;65956;52.986;17.490;2023-08-24T10:57:55;3.00;;;1.30;;
77026;SDS011;65956;52.986;17.490;2023-08-24T11:00:25;4.40;;;1.30;;
77026;SDS011;65956;52.986;17.490;2023-08-24T11:02:53;5.10;;;1.30;;
77026;SDS011;65956;52.986;17.490;2023-08-24T11:05:20;4.00;;;1.30;;
77026;SDS011;65956;52.986;17.490;2023-08-24T11:07:57;5.00;;;1.60;;
77026;SDS011;65956;52.986;17.490;2023-08-24T11:13:09;4.00;;;1.20;;
77026;SDS011;65956;52.986;17.490;2023-08-24T11:15:40;3.10;;;1.30;;
77026;SDS011;65956;52.986;17.490;2023-08-24T11:18:14;3.60;;;1.50;;
77026;SDS011;65956;52.986;17.490;2023-08-24T11:23:26;3.90;;;1.30;;
77026;SDS011;65956;52.986;17.490;2023-08-24T11:25:53;3.30;;;1.30;;
77026;SDS011;65956;52.986;17.490;2023-08-24T11:28:22;3.00;;;1.30;;
77026;SDS011;65956;52.986;17.490;2023-08-24T11:30:51;4.00;;;1.50;;
77026;SDS011;65956;52.986;17.490;2023-08-24T11:33:26;3.80;;;1.50;;
77026;SDS011;65956;52.986;17.490;2023-08-24T11:35:57;4.00;;;1.50;;
77026;SDS011;65956;52.986;17.490;2023-08-24T11:38:23;3.30;;;1.40;;
77026;SDS011;65956;52.986;17.490;2023-08-24T11:40:50;3.90;;;1.30;;
77026;SDS011;65956;52.986;17.490;2023-08-24T11:43:26;7.10;;;1.50;;
77026;SDS011;65956;52.986;17.490;2023-08-24T11:48:23;3.50;;;1.40;;
77026;SDS011;65956;52.986;17.490;2023-08-24T11:50:51;3.30;;;1.30;;
77026;SDS011;65956;52.986;17.490;2023-08-24T11:53:17;3.90;;;1.40;;
77026;SDS011;65956;52.986;17.490;2023-08-24T11:55:43;3.10;;;1.30;;
77026;SDS011;65956;52.986;17.490;2023-08-24T11:58:13;3.20;;;1.40;;
77026;SDS011;65956;52.986;17.490;2023-08-24T12:00:41;4.00;;;1.60;;
77026;SDS011;65956;52.986;17.490;2023-08-24T12:03:08;3.50;;;1.30;;
77026;SDS011;65956;52.986;17.490;2023-08-24T12:05:35;4.10;;;1.50;;
77026;SDS011;65956;52.986;17.490;2023-08-24T12:08:01;4.10;;;1.50;;
77026;SDS011;65956;52.986;17.490;2023-08-24T12:10:28;4.10;;;1.40;;
77026;SDS011;65956;52.986;17.490;2023-08-24T12:13:01;3.90;;;1.40;;
77026;SDS011;65956;52.986;17.490;2023-08-24T12:15:30;3.50;;;1.20;;
77026;SDS011;65956;52.986;17.490;2023-08-24T12:17:56;3.40;;;1.30;;
77026;SDS011;65956;52.986;17.490;2023-08-24T12:20:22;4.00;;;1.30;;
77026;SDS011;65956;52.986;17.490;2023-08-24T12:22:55;3.00;;;1.10;;
77026;SDS011;65956;52.986;17.490;2023-08-24T12:25:21;3.20;;;1.30;;
77026;SDS011;65956;52.986;17.490;2023-08-24T12:27:50;2.70;;;1.20;;
77026;SDS011;65956;52.986;17.490;2023-08-24T12:30:17;2.70;;;1.20;;
77026;SDS011;65956;52.986;17.490;2023-08-24T12:32:46;2.80;;;1.30;;
77026;SDS011;65956;52.986;17.490;2023-08-24T12:35:14;3.20;;;1.60;;
77026;SDS011;65956;52.986;17.490;2023-08-24T12:37:41;2.70;;;1.20;;
77026;SDS011;65956;52.986;17.490;2023-08-24T12:40:07;4.00;;;1.50;;
77026;SDS011;65956;52.986;17.490;2023-08-24T12:42:33;4.80;;;1.40;;
77026;SDS011;65956;52.986;17.490;2023-08-24T12:45:00;5.00;;;1.50;;
77026;SDS011;65956;52.986;17.490;2023-08-24T12:47:26;3.70;;;1.30;;
77026;SDS011;65956;52.986;17.490;2023-08-24T12:49:52;4.30;;;1.40;;
77026;SDS011;65956;52.986;17.490;2023-08-24T12:52:21;4.10;;;1.40;;
77026;SDS011;65956;52.986;17.490;2023-08-24T12:57:16;4.20;;;1.40;;
77026;SDS011;65956;52.986;17.490;2023-08-24T12:59:42;3.40;;;1.40;;
77026;SDS011;65956;52.986;17.490;2023-08-24T13:02:08;4.20;;;1.90;;
77026;SDS011;65956;52.986;17.490;2023-08-24T13:04:34;4.10;;;1.50;;
77026;SDS011;65956;52.986;17.490;2023-08-24T13:07:00;3.80;;;1.50;;
77026;SDS011;65956;52.986;17.490;2023-08-24T13:09:26;4.20;;;1.40;;
77026;SDS011;65956;52.986;17.490;2023-08-24T13:11:52;4.60;;;1.60;;
77026;SDS011;65956;52.986;17.490;2023-08-24T13:14:18;5.30;;;1.70;;
77026;SDS011;65956;52.986;17.490;2023-08-24T13:16:44;4.00;;;1.50;;
77026;SDS011;65956;52.986;17.490;2023-08-24T13:19:12;4.20;;;1.40;;
77026;SDS011;65956;52.986;17.490;2023-08-24T13:21:38;4.00;;;1.40;;
77026;SDS011;65956;52.986;17.490;2023-08-24T13:24:04;5.60;;;3.70;;
77026;SDS011;65956;52.986;17.490;2023-08-24T13:26:30;7.30;;;3.20;;
77026;SDS011;65956;52.986;17.490;2023-08-24T13:28:56;4.30;;;2.40;;
77026;SDS011;65956;52.986;17.490;2023-08-24T13:31:22;6.60;;;1.90;;
77026;SDS011;65956;52.986;17.490;2023-08-24T13:33:48;4.20;;;1.50;;
77026;SDS011;65956;52.986;17.490;2023-08-24T13:36:14;3.90;;;1.50;;
77026;SDS011;65956;52.986;17.490;2023-08-24T13:38:40;5.30;;;1.40;;
77026;SDS011;65956;52.986;17.490;2023-08-24T13:41:06;4.70;;;1.60;;
77026;SDS011;65956;52.986;17.490;2023-08-24T13:43:32;4.50;;;1.60;;
77026;SDS011;65956;52.986;17.490;2023-08-24T13:45:59;8.30;;;4.20;;
77026;SDS011;65956;52.986;17.490;2023-08-24T13:48:25;4.90;;;2.50;;
77026;SDS011;65956;52.986;17.490;2023-08-24T13:50:51;3.90;;;1.60;;
77026;SDS011;65956;52.986;17.490;2023-08-24T13:53:18;5.60;;;3.00;;
77026;SDS011;65956;52.986;17.490;2023-08-24T13:55:44;7.70;;;4.20;;
77026;SDS011;65956;52.986;17.490;2023-08-24T13:58:10;7.10;;;3.60;;
77026;SDS011;65956;52.986;17.490;2023-08-24T14:00:36;10.10;;;5.30;;
77026;SDS011;65956;52.986;17.490;2023-08-24T14:03:03;13.30;;;7.20;;
77026;SDS011;65956;52.986;17.490;2023-08-24T14:05:30;11.80;;;6.00;;
77026;SDS011;65956;52.986;17.490;2023-08-24T14:07:56;5.50;;;2.90;;
77026;SDS011;65956;52.986;17.490;2023-08-24T14:10:22;4.90;;;1.90;;
77026;SDS011;65956;52.986;17.490;2023-08-24T14:12:48;4.00;;;1.60;;
77026;SDS011;65956;52.986;17.490;2023-08-24T14:15:14;3.70;;;1.70;;
77026;SDS011;65956;52.986;17.490;2023-08-24T14:17:40;4.00;;;1.40;;
77026;SDS011;65956;52.986;17.490;2023-08-24T14:20:06;4.00;;;1.50;;
77026;SDS011;65956;52.986;17.490;2023-08-24T14:22:34;4.00;;;1.50;;
77026;SDS011;65956;52.986;17.490;2023-08-24T14:25:00;3.80;;;1.50;;
77026;SDS011;65956;52.986;17.490;2023-08-24T14:27:26;3.20;;;1.50;;
77026;SDS011;65956;52.986;17.490;2023-08-24T14:29:52;4.80;;;1.60;;
77026;SDS011;65956;52.986;17.490;2023-08-24T14:32:18;3.90;;;1.50;;
77026;SDS011;65956;52.986;17.490;2023-08-24T14:34:44;4.00;;;1.40;;
77026;SDS011;65956;52.986;17.490;2023-08-24T14:37:10;5.40;;;1.90;;
77026;SDS011;65956;52.986;17.490;2023-08-24T14:39:36;3.70;;;1.40;;
77026;SDS011;65956;52.986;17.490;2023-08-24T14:42:02;4.10;;;1.30;;
77026;SDS011;65956;52.986;17.490;2023-08-24T14:44:28;3.60;;;1.50;;
77026;SDS011;65956;52.986;17.490;2023-08-24T14:46:54;4.30;;;1.60;;
77026;SDS011;65956;52.986;17.490;2023-08-24T14:49:20;4.00;;;1.90;;
77026;SDS011;65956;52.986;17.490;2023-08-24T14:51:46;3.90;;;1.60;;
77026;SDS011;65956;52.986;17.490;2023-08-24T14:54:12;5.00;;;1.70;;
77026;SDS011;65956;52.986;17.490;2023-08-24T14:56:42;3.50;;;1.50;;